sensor_id;sensor_type;location;lat;lon;timestamp;temperature;humidity
31733;DHT22;18312;51.486;7.144;2023-04-03T00:00:36;0.10;99.90
31733;DHT22;18312;51.486;7.144;2023-04-03T00:03:03;0.20;99.90
31733;DHT22;18312;51.486;7.144;2023-04-03T00:05:29;0.00;99.90
31733;DHT22;18312;51.486;7.144;2023-04-03T00:07:57;0.00;99.90
31733;DHT22;18312;51.486;7.144;2023-04-03T00:10:24;-0.10;99.90
31733;DHT22;18312;51.486;7.144;2023-04-03T00:12:50;-0.10;99.90
31733;DHT22;18312;51.486;7.144;2023-04-03T00:15:17;-0.10;99.90
31733;DHT22;18312;51.486;7.144;2023-04-03T00:17:44;0.00;99.90
31733;DHT22;18312;51.486;7.144;2023-04-03T00:20:10;0.10;99.90
31733;DHT22;18312;51.486;7.144;2023-04-03T00:22:37;0.10;99.90
31733;DHT22;18312;51.486;7.144;2023-04-03T00:25:05;0.10;99.90
31733;DHT22;18312;51.486;7.144;2023-04-03T00:27:32;0.10;99.90
31733;DHT22;18312;51.486;7.144;2023-04-03T00:29:59;0.10;99.90
31733;DHT22;18312;51.486;7.144;2023-04-03T00:32:25;0.00;99.90
31733;DHT22;18312;51.486;7.144;2023-04-03T00:34:52;0.00;99.90
31733;DHT22;18312;51.486;7.144;2023-04-03T00:37:18;-0.10;99.90
31733;DHT22;18312;51.486;7.144;2023-04-03T00:39:45;-0.10;99.90
31733;DHT22;18312;51.486;7.144;2023-04-03T00:42:13;-0.20;99.90
31733;DHT22;18312;51.486;7.144;2023-04-03T00:47:26;-0.20;99.90
31733;DHT22;18312;51.486;7.144;2023-04-03T00:49:53;-0.20;99.90
31733;DHT22;18312;51.486;7.144;2023-04-03T00:52:21;-0.20;99.90
31733;DHT22;18312;51.486;7.144;2023-04-03T00:54:50;-0.30;99.90
31733;DHT22;18312;51.486;7.144;2023-04-03T00:57:19;-0.30;99.90
31733;DHT22;18312;51.486;7.144;2023-04-03T00:59:46;-0.40;99.90
31733;DHT22;18312;51.486;7.144;2023-04-03T01:02:14;-0.50;99.90
31733;DHT22;18312;51.486;7.144;2023-04-03T01:04:42;-0.40;99.90
31733;DHT22;18312;51.486;7.144;2023-04-03T01:07:09;-0.10;99.90
31733;DHT22;18312;51.486;7.144;2023-04-03T01:09:36;-0.20;99.90
31733;DHT22;18312;51.486;7.144;2023-04-03T01:12:12;0.00;99.90
31733;DHT22;18312;51.486;7.144;2023-04-03T01:14:42;-0.10;99.90
31733;DHT22;18312;51.486;7.144;2023-04-03T01:17:24;0.00;99.90
31733;DHT22;18312;51.486;7.144;2023-04-03T01:19:54;0.00;99.90
31733;DHT22;18312;51.486;7.144;2023-04-03T01:22:28;0.00;99.90
31733;DHT22;18312;51.486;7.144;2023-04-03T01:24:57;0.20;99.90
31733;DHT22;18312;51.486;7.144;2023-04-03T01:27:23;0.30;99.90
31733;DHT22;18312;51.486;7.144;2023-04-03T01:29:51;0.30;99.90
31733;DHT22;18312;51.486;7.144;2023-04-03T01:32:19;0.40;99.90
31733;DHT22;18312;51.486;7.144;2023-04-03T01:34:46;0.30;99.90
31733;DHT22;18312;51.486;7.144;2023-04-03T01:37:12;0.40;99.90
31733;DHT22;18312;51.486;7.144;2023-04-03T01:39:39;0.50;99.90
31733;DHT22;18312;51.486;7.144;2023-04-03T01:42:05;0.40;99.90
31733;DHT22;18312;51.486;7.144;2023-04-03T01:44:32;0.50;99.90
31733;DHT22;18312;51.486;7.144;2023-04-03T01:46:58;0.30;99.90
31733;DHT22;18312;51.486;7.144;2023-04-03T01:49:26;0.50;99.90
31733;DHT22;18312;51.486;7.144;2023-04-03T01:51:53;0.50;99.90
31733;DHT22;18312;51.486;7.144;2023-04-03T01:54:19;0.50;99.90
31733;DHT22;18312;51.486;7.144;2023-04-03T01:56:46;0.50;99.90
31733;DHT22;18312;51.486;7.144;2023-04-03T01:59:13;0.50;99.90
31733;DHT22;18312;51.486;7.144;2023-04-03T02:01:42;0.30;99.90
31733;DHT22;18312;51.486;7.144;2023-04-03T02:04:08;0.00;99.90
31733;DHT22;18312;51.486;7.144;2023-04-03T02:06:37;-0.20;99.90
31733;DHT22;18312;51.486;7.144;2023-04-03T02:09:03;-0.20;99.90
31733;DHT22;18312;51.486;7.144;2023-04-03T02:11:30;-0.30;99.90
31733;DHT22;18312;51.486;7.144;2023-04-03T02:13:56;-0.40;99.90
31733;DHT22;18312;51.486;7.144;2023-04-03T02:16:23;-0.40;99.90
31733;DHT22;18312;51.486;7.144;2023-04-03T02:18:50;-0.30;99.90
31733;DHT22;18312;51.486;7.144;2023-04-03T02:21:16;-0.40;99.90
31733;DHT22;18312;51.486;7.144;2023-04-03T02:23:44;-0.40;99.90
31733;DHT22;18312;51.486;7.144;2023-04-03T02:26:12;-0.50;99.90
31733;DHT22;18312;51.486;7.144;2023-04-03T02:28:39;-0.50;99.90
31733;DHT22;18312;51.486;7.144;2023-04-03T02:31:06;-0.50;99.90
31733;DHT22;18312;51.486;7.144;2023-04-03T02:33:33;-0.60;99.90
31733;DHT22;18312;51.486;7.144;2023-04-03T02:36:01;-0.60;99.90
31733;DHT22;18312;51.486;7.144;2023-04-03T02:38:27;-0.70;99.90
31733;DHT22;18312;51.486;7.144;2023-04-03T02:41:00;-0.60;99.90
31733;DHT22;18312;51.486;7.144;2023-04-03T02:43:27;-0.60;99.90
31733;DHT22;18312;51.486;7.144;2023-04-03T02:45:53;-0.40;99.90
31733;DHT22;18312;51.486;7.144;2023-04-03T02:48:20;-0.50;99.90
31733;DHT22;18312;51.486;7.144;2023-04-03T02:50:46;-0.60;99.90
31733;DHT22;18312;51.486;7.144;2023-04-03T02:53:13;-0.50;99.90
31733;DHT22;18312;51.486;7.144;2023-04-03T02:55:40;-0.40;99.90
31733;DHT22;18312;51.486;7.144;2023-04-03T02:58:08;-0.50;99.90
31733;DHT22;18312;51.486;7.144;2023-04-03T03:00:35;-0.60;99.90
31733;DHT22;18312;51.486;7.144;2023-04-03T03:03:01;-0.40;99.90
31733;DHT22;18312;51.486;7.144;2023-04-03T03:05:28;-0.20;99.90
31733;DHT22;18312;51.486;7.144;2023-04-03T03:07:55;0.00;99.90
31733;DHT22;18312;51.486;7.144;2023-04-03T03:10:22;0.10;99.90
31733;DHT22;18312;51.486;7.144;2023-04-03T03:12:49;0.30;99.90
31733;DHT22;18312;51.486;7.144;2023-04-03T03:15:17;0.30;99.90
31733;DHT22;18312;51.486;7.144;2023-04-03T03:17:44;0.30;99.90
31733;DHT22;18312;51.486;7.144;2023-04-03T03:20:11;0.30;99.90
31733;DHT22;18312;51.486;7.144;2023-04-03T03:22:39;0.50;99.90
31733;DHT22;18312;51.486;7.144;2023-04-03T03:25:06;0.50;99.90
31733;DHT22;18312;51.486;7.144;2023-04-03T03:27:32;0.60;99.90
31733;DHT22;18312;51.486;7.144;2023-04-03T03:29:59;0.60;99.90
31733;DHT22;18312;51.486;7.144;2023-04-03T03:32:27;0.50;99.90
31733;DHT22;18312;51.486;7.144;2023-04-03T03:34:53;0.70;99.90
31733;DHT22;18312;51.486;7.144;2023-04-03T03:37:20;0.80;99.90
31733;DHT22;18312;51.486;7.144;2023-04-03T03:39:46;0.80;99.90
31733;DHT22;18312;51.486;7.144;2023-04-03T03:42:13;0.80;99.90
31733;DHT22;18312;51.486;7.144;2023-04-03T03:44:39;0.70;99.90
31733;DHT22;18312;51.486;7.144;2023-04-03T03:47:06;0.70;99.90
31733;DHT22;18312;51.486;7.144;2023-04-03T03:49:37;0.70;99.90
31733;DHT22;18312;51.486;7.144;2023-04-03T03:52:03;0.70;99.90
31733;DHT22;18312;51.486;7.144;2023-04-03T03:54:30;0.70;99.90
31733;DHT22;18312;51.486;7.144;2023-04-03T03:56:57;0.80;99.90
31733;DHT22;18312;51.486;7.144;2023-04-03T03:59:23;0.80;99.90
31733;DHT22;18312;51.486;7.144;2023-04-03T04:01:50;0.70;99.90
31733;DHT22;18312;51.486;7.144;2023-04-03T04:04:16;0.60;99.90
31733;DHT22;18312;51.486;7.144;2023-04-03T04:06:44;0.60;99.90
31733;DHT22;18312;51.486;7.144;2023-04-03T04:09:11;0.40;99.90
31733;DHT22;18312;51.486;7.144;2023-04-03T04:11:37;0.50;99.90
31733;DHT22;18312;51.486;7.144;2023-04-03T04:14:05;0.50;99.90
31733;DHT22;18312;51.486;7.144;2023-04-03T04:16:31;0.40;99.90
31733;DHT22;18312;51.486;7.144;2023-04-03T04:18:58;0.40;99.90
31733;DHT22;18312;51.486;7.144;2023-04-03T04:21:24;0.40;99.90
31733;DHT22;18312;51.486;7.144;2023-04-03T04:23:53;0.40;99.90
31733;DHT22;18312;51.486;7.144;2023-04-03T04:26:19;0.30;99.90
31733;DHT22;18312;51.486;7.144;2023-04-03T04:28:46;0.30;99.90
31733;DHT22;18312;51.486;7.144;2023-04-03T04:31:13;0.20;99.90
31733;DHT22;18312;51.486;7.144;2023-04-03T04:33:39;0.20;99.90
31733;DHT22;18312;51.486;7.144;2023-04-03T04:36:07;0.20;99.90
31733;DHT22;18312;51.486;7.144;2023-04-03T04:38:33;0.10;99.90
31733;DHT22;18312;51.486;7.144;2023-04-03T04:41:02;0.10;99.90
31733;DHT22;18312;51.486;7.144;2023-04-03T04:43:28;0.10;99.90
31733;DHT22;18312;51.486;7.144;2023-04-03T04:46:01;0.10;99.90
31733;DHT22;18312;51.486;7.144;2023-04-03T04:48:28;0.10;99.90
31733;DHT22;18312;51.486;7.144;2023-04-03T04:50:54;0.10;99.90
31733;DHT22;18312;51.486;7.144;2023-04-03T04:53:21;0.20;99.90
31733;DHT22;18312;51.486;7.144;2023-04-03T04:55:48;0.10;99.90
31733;DHT22;18312;51.486;7.144;2023-04-03T04:58:16;0.00;99.90
31733;DHT22;18312;51.486;7.144;2023-04-03T05:00:42;0.00;99.90
31733;DHT22;18312;51.486;7.144;2023-04-03T05:03:09;-0.10;99.90
31733;DHT22;18312;51.486;7.144;2023-04-03T05:05:35;0.00;99.90
31733;DHT22;18312;51.486;7.144;2023-04-03T05:08:02;0.00;99.90
31733;DHT22;18312;51.486;7.144;2023-04-03T05:10:29;-0.10;99.90
31733;DHT22;18312;51.486;7.144;2023-04-03T05:12:56;0.00;99.90
31733;DHT22;18312;51.486;7.144;2023-04-03T05:15:24;-0.10;99.90
31733;DHT22;18312;51.486;7.144;2023-04-03T05:17:51;-0.20;99.90
31733;DHT22;18312;51.486;7.144;2023-04-03T05:20:17;-0.30;99.90
31733;DHT22;18312;51.486;7.144;2023-04-03T05:22:44;-0.20;99.90
31733;DHT22;18312;51.486;7.144;2023-04-03T05:25:10;-0.20;99.90
31733;DHT22;18312;51.486;7.144;2023-04-03T05:27:37;0.00;99.90
31733;DHT22;18312;51.486;7.144;2023-04-03T05:30:04;0.10;99.90
31733;DHT22;18312;51.486;7.144;2023-04-03T05:32:32;0.10;99.90
31733;DHT22;18312;51.486;7.144;2023-04-03T05:34:59;0.20;99.90
31733;DHT22;18312;51.486;7.144;2023-04-03T05:37:25;0.10;99.90
31733;DHT22;18312;51.486;7.144;2023-04-03T05:39:52;0.10;99.90
31733;DHT22;18312;51.486;7.144;2023-04-03T05:42:18;0.20;99.90
31733;DHT22;18312;51.486;7.144;2023-04-03T05:44:45;0.20;99.90
31733;DHT22;18312;51.486;7.144;2023-04-03T05:47:12;0.30;99.90
31733;DHT22;18312;51.486;7.144;2023-04-03T05:49:40;0.30;99.90
31733;DHT22;18312;51.486;7.144;2023-04-03T05:52:08;0.40;99.90
31733;DHT22;18312;51.486;7.144;2023-04-03T05:54:36;0.40;99.90
31733;DHT22;18312;51.486;7.144;2023-04-03T05:57:03;0.50;99.90
31733;DHT22;18312;51.486;7.144;2023-04-03T05:59:29;0.50;99.90
31733;DHT22;18312;51.486;7.144;2023-04-03T06:01:56;0.50;99.90
31733;DHT22;18312;51.486;7.144;2023-04-03T06:04:22;0.60;99.90
31733;DHT22;18312;51.486;7.144;2023-04-03T06:06:50;0.60;99.90
31733;DHT22;18312;51.486;7.144;2023-04-03T06:09:18;0.70;99.90
31733;DHT22;18312;51.486;7.144;2023-04-03T06:11:45;0.70;99.90
31733;DHT22;18312;51.486;7.144;2023-04-03T06:14:12;0.80;99.90
31733;DHT22;18312;51.486;7.144;2023-04-03T06:16:39;0.90;99.90
31733;DHT22;18312;51.486;7.144;2023-04-03T06:19:06;0.90;99.90
31733;DHT22;18312;51.486;7.144;2023-04-03T06:21:32;1.00;99.90
31733;DHT22;18312;51.486;7.144;2023-04-03T06:24:02;1.00;99.90
31733;DHT22;18312;51.486;7.144;2023-04-03T06:26:29;1.10;99.90
31733;DHT22;18312;51.486;7.144;2023-04-03T06:28:56;1.10;99.90
31733;DHT22;18312;51.486;7.144;2023-04-03T06:31:22;1.20;99.90
31733;DHT22;18312;51.486;7.144;2023-04-03T06:33:49;1.30;99.90
31733;DHT22;18312;51.486;7.144;2023-04-03T06:36:15;2.40;99.90
31733;DHT22;18312;51.486;7.144;2023-04-03T06:38:45;4.20;99.90
31733;DHT22;18312;51.486;7.144;2023-04-03T06:41:13;5.30;99.90
31733;DHT22;18312;51.486;7.144;2023-04-03T06:43:40;6.00;99.90
31733;DHT22;18312;51.486;7.144;2023-04-03T06:46:08;6.40;98.60
31733;DHT22;18312;51.486;7.144;2023-04-03T06:48:37;6.50;97.90
31733;DHT22;18312;51.486;7.144;2023-04-03T06:51:03;7.10;96.20
31733;DHT22;18312;51.486;7.144;2023-04-03T06:53:30;6.20;96.30
31733;DHT22;18312;51.486;7.144;2023-04-03T06:55:57;5.50;97.90
31733;DHT22;18312;51.486;7.144;2023-04-03T06:58:25;5.00;98.70
31733;DHT22;18312;51.486;7.144;2023-04-03T07:00:51;4.70;99.90
31733;DHT22;18312;51.486;7.144;2023-04-03T07:03:18;5.10;99.40
31733;DHT22;18312;51.486;7.144;2023-04-03T07:05:44;5.10;99.80
31733;DHT22;18312;51.486;7.144;2023-04-03T07:08:11;5.20;98.60
31733;DHT22;18312;51.486;7.144;2023-04-03T07:10:38;6.00;97.30
31733;DHT22;18312;51.486;7.144;2023-04-03T07:13:04;6.70;94.30
31733;DHT22;18312;51.486;7.144;2023-04-03T07:15:32;5.90;96.00
31733;DHT22;18312;51.486;7.144;2023-04-03T07:17:59;5.50;97.30
31733;DHT22;18312;51.486;7.144;2023-04-03T07:20:25;5.80;96.70
31733;DHT22;18312;51.486;7.144;2023-04-03T07:22:52;5.80;97.00
31733;DHT22;18312;51.486;7.144;2023-04-03T07:25:18;6.00;96.10
31733;DHT22;18312;51.486;7.144;2023-04-03T07:27:45;6.70;94.90
31733;DHT22;18312;51.486;7.144;2023-04-03T07:30:12;5.70;96.20
31733;DHT22;18312;51.486;7.144;2023-04-03T07:32:41;5.40;96.20
31733;DHT22;18312;51.486;7.144;2023-04-03T07:35:07;5.20;97.90
31733;DHT22;18312;51.486;7.144;2023-04-03T07:37:34;4.50;98.80
31733;DHT22;18312;51.486;7.144;2023-04-03T07:40:01;4.50;99.30
31733;DHT22;18312;51.486;7.144;2023-04-03T07:42:28;5.10;98.40
31733;DHT22;18312;51.486;7.144;2023-04-03T07:44:55;4.90;98.10
31733;DHT22;18312;51.486;7.144;2023-04-03T07:47:22;4.30;99.30
31733;DHT22;18312;51.486;7.144;2023-04-03T07:49:50;4.80;98.70
31733;DHT22;18312;51.486;7.144;2023-04-03T07:52:16;5.50;96.70
31733;DHT22;18312;51.486;7.144;2023-04-03T07:54:43;4.90;97.10
31733;DHT22;18312;51.486;7.144;2023-04-03T07:57:09;5.70;97.00
31733;DHT22;18312;51.486;7.144;2023-04-03T07:59:36;8.20;93.00
31733;DHT22;18312;51.486;7.144;2023-04-03T08:02:04;8.30;90.00
31733;DHT22;18312;51.486;7.144;2023-04-03T08:04:31;6.70;92.60
31733;DHT22;18312;51.486;7.144;2023-04-03T08:06:59;5.70;94.60
31733;DHT22;18312;51.486;7.144;2023-04-03T08:09:26;4.90;95.80
31733;DHT22;18312;51.486;7.144;2023-04-03T08:11:52;4.50;96.80
31733;DHT22;18312;51.486;7.144;2023-04-03T08:14:19;5.00;96.70
31733;DHT22;18312;51.486;7.144;2023-04-03T08:16:46;7.80;92.30
31733;DHT22;18312;51.486;7.144;2023-04-03T08:19:13;9.10;85.70
31733;DHT22;18312;51.486;7.144;2023-04-03T08:21:41;7.10;90.20
31733;DHT22;18312;51.486;7.144;2023-04-03T08:24:09;5.90;92.70
31733;DHT22;18312;51.486;7.144;2023-04-03T08:26:35;5.30;94.00
31733;DHT22;18312;51.486;7.144;2023-04-03T08:29:02;5.40;94.90
31733;DHT22;18312;51.486;7.144;2023-04-03T08:31:29;5.60;93.50
31733;DHT22;18312;51.486;7.144;2023-04-03T08:33:56;6.60;92.40
31733;DHT22;18312;51.486;7.144;2023-04-03T08:36:23;6.90;92.40
31733;DHT22;18312;51.486;7.144;2023-04-03T08:38:50;8.50;88.30
31733;DHT22;18312;51.486;7.144;2023-04-03T08:41:20;8.70;84.60
31733;DHT22;18312;51.486;7.144;2023-04-03T08:43:56;9.50;80.50
31733;DHT22;18312;51.486;7.144;2023-04-03T08:46:26;10.40;74.50
31733;DHT22;18312;51.486;7.144;2023-04-03T08:48:55;11.10;72.30
31733;DHT22;18312;51.486;7.144;2023-04-03T08:51:24;11.30;68.50
31733;DHT22;18312;51.486;7.144;2023-04-03T08:53:56;11.60;67.10
31733;DHT22;18312;51.486;7.144;2023-04-03T08:56:24;10.80;67.50
31733;DHT22;18312;51.486;7.144;2023-04-03T08:58:52;10.20;69.70
31733;DHT22;18312;51.486;7.144;2023-04-03T09:01:21;9.60;70.40
31733;DHT22;18312;51.486;7.144;2023-04-03T09:03:49;10.10;69.90
31733;DHT22;18312;51.486;7.144;2023-04-03T09:06:16;8.50;69.30
31733;DHT22;18312;51.486;7.144;2023-04-03T09:08:45;8.10;71.40
31733;DHT22;18312;51.486;7.144;2023-04-03T09:11:14;8.70;67.60
31733;DHT22;18312;51.486;7.144;2023-04-03T09:13:45;8.70;68.60
31733;DHT22;18312;51.486;7.144;2023-04-03T09:16:19;10.10;64.60
31733;DHT22;18312;51.486;7.144;2023-04-03T09:18:48;11.10;63.20
31733;DHT22;18312;51.486;7.144;2023-04-03T09:21:20;10.00;62.60
31733;DHT22;18312;51.486;7.144;2023-04-03T09:23:50;9.00;65.60
31733;DHT22;18312;51.486;7.144;2023-04-03T09:26:17;7.50;69.90
31733;DHT22;18312;51.486;7.144;2023-04-03T09:28:46;7.60;70.40
31733;DHT22;18312;51.486;7.144;2023-04-03T09:31:20;7.60;67.70
31733;DHT22;18312;51.486;7.144;2023-04-03T09:33:47;7.60;63.70
31733;DHT22;18312;51.486;7.144;2023-04-03T09:39:02;10.40;61.40
31733;DHT22;18312;51.486;7.144;2023-04-03T09:41:29;10.00;58.10
31733;DHT22;18312;51.486;7.144;2023-04-03T09:43:59;9.50;58.50
31733;DHT22;18312;51.486;7.144;2023-04-03T09:46:29;8.70;60.90
31733;DHT22;18312;51.486;7.144;2023-04-03T09:48:56;8.60;61.00
31733;DHT22;18312;51.486;7.144;2023-04-03T09:51:24;10.50;60.00
31733;DHT22;18312;51.486;7.144;2023-04-03T09:53:51;10.80;56.10
31733;DHT22;18312;51.486;7.144;2023-04-03T09:56:19;10.60;55.30
31733;DHT22;18312;51.486;7.144;2023-04-03T09:58:47;11.40;55.30
31733;DHT22;18312;51.486;7.144;2023-04-03T10:01:25;11.60;54.70
31733;DHT22;18312;51.486;7.144;2023-04-03T10:04:06;10.80;53.50
31733;DHT22;18312;51.486;7.144;2023-04-03T10:06:33;9.40;57.60
31733;DHT22;18312;51.486;7.144;2023-04-03T10:09:02;8.70;59.20
31733;DHT22;18312;51.486;7.144;2023-04-03T10:11:29;7.90;61.50
31733;DHT22;18312;51.486;7.144;2023-04-03T10:13:57;7.70;61.90
31733;DHT22;18312;51.486;7.144;2023-04-03T10:16:27;7.20;64.70
31733;DHT22;18312;51.486;7.144;2023-04-03T10:18:57;7.00;66.00
31733;DHT22;18312;51.486;7.144;2023-04-03T10:21:29;6.90;64.70
31733;DHT22;18312;51.486;7.144;2023-04-03T10:24:01;6.60;66.10
31733;DHT22;18312;51.486;7.144;2023-04-03T10:26:31;6.50;66.60
31733;DHT22;18312;51.486;7.144;2023-04-03T10:29:02;6.40;66.10
31733;DHT22;18312;51.486;7.144;2023-04-03T10:31:36;6.70;68.20
31733;DHT22;18312;51.486;7.144;2023-04-03T10:34:05;6.80;66.30
31733;DHT22;18312;51.486;7.144;2023-04-03T10:36:37;6.80;67.60
31733;DHT22;18312;51.486;7.144;2023-04-03T10:39:08;6.70;67.00
31733;DHT22;18312;51.486;7.144;2023-04-03T10:41:40;6.70;66.90
31733;DHT22;18312;51.486;7.144;2023-04-03T10:44:14;6.70;67.30
31733;DHT22;18312;51.486;7.144;2023-04-03T10:46:43;6.70;67.80
31733;DHT22;18312;51.486;7.144;2023-04-03T10:49:20;6.80;67.60
31733;DHT22;18312;51.486;7.144;2023-04-03T10:51:50;7.10;67.40
31733;DHT22;18312;51.486;7.144;2023-04-03T10:54:23;6.80;66.10
31733;DHT22;18312;51.486;7.144;2023-04-03T10:56:51;6.80;66.30
31733;DHT22;18312;51.486;7.144;2023-04-03T10:59:21;6.70;65.70
31733;DHT22;18312;51.486;7.144;2023-04-03T11:01:51;6.70;66.80
31733;DHT22;18312;51.486;7.144;2023-04-03T11:04:19;7.00;67.60
31733;DHT22;18312;51.486;7.144;2023-04-03T11:06:47;6.90;65.30
31733;DHT22;18312;51.486;7.144;2023-04-03T11:09:18;7.10;65.40
31733;DHT22;18312;51.486;7.144;2023-04-03T11:11:46;7.00;65.50
31733;DHT22;18312;51.486;7.144;2023-04-03T11:14:14;7.00;65.60
31733;DHT22;18312;51.486;7.144;2023-04-03T11:16:45;7.10;66.90
31733;DHT22;18312;51.486;7.144;2023-04-03T11:19:16;6.90;64.10
31733;DHT22;18312;51.486;7.144;2023-04-03T11:21:47;7.00;64.30
31733;DHT22;18312;51.486;7.144;2023-04-03T11:24:20;7.10;64.40
31733;DHT22;18312;51.486;7.144;2023-04-03T11:26:48;7.30;63.80
31733;DHT22;18312;51.486;7.144;2023-04-03T11:29:17;7.20;63.00
31733;DHT22;18312;51.486;7.144;2023-04-03T11:31:49;7.30;65.20
31733;DHT22;18312;51.486;7.144;2023-04-03T11:34:28;7.70;65.70
31733;DHT22;18312;51.486;7.144;2023-04-03T11:37:00;7.70;63.60
31733;DHT22;18312;51.486;7.144;2023-04-03T11:39:28;7.60;63.40
31733;DHT22;18312;51.486;7.144;2023-04-03T11:44:38;7.40;63.70
31733;DHT22;18312;51.486;7.144;2023-04-03T11:47:07;7.30;63.40
31733;DHT22;18312;51.486;7.144;2023-04-03T11:49:52;7.50;63.90
31733;DHT22;18312;51.486;7.144;2023-04-03T11:55:35;7.70;64.30
31733;DHT22;18312;51.486;7.144;2023-04-03T11:58:04;7.60;63.50
31733;DHT22;18312;51.486;7.144;2023-04-03T12:00:47;7.80;62.70
31733;DHT22;18312;51.486;7.144;2023-04-03T12:03:32;7.80;62.10
31733;DHT22;18312;51.486;7.144;2023-04-03T12:08:44;7.60;62.70
31733;DHT22;18312;51.486;7.144;2023-04-03T12:11:15;7.80;63.00
31733;DHT22;18312;51.486;7.144;2023-04-03T12:16:28;7.80;61.90
31733;DHT22;18312;51.486;7.144;2023-04-03T12:18:56;8.00;62.00
31733;DHT22;18312;51.486;7.144;2023-04-03T12:21:24;8.00;60.80
31733;DHT22;18312;51.486;7.144;2023-04-03T12:24:24;8.00;61.40
31733;DHT22;18312;51.486;7.144;2023-04-03T12:27:01;7.70;60.70
31733;DHT22;18312;51.486;7.144;2023-04-03T12:29:29;7.90;61.10
31733;DHT22;18312;51.486;7.144;2023-04-03T12:32:04;8.20;60.40
31733;DHT22;18312;51.486;7.144;2023-04-03T12:34:43;8.20;60.80
31733;DHT22;18312;51.486;7.144;2023-04-03T12:37:17;8.20;60.70
31733;DHT22;18312;51.486;7.144;2023-04-03T12:39:53;8.70;60.70
31733;DHT22;18312;51.486;7.144;2023-04-03T12:42:30;8.40;59.20
31733;DHT22;18312;51.486;7.144;2023-04-03T12:44:59;8.40;59.50
31733;DHT22;18312;51.486;7.144;2023-04-03T12:47:29;8.20;58.60
31733;DHT22;18312;51.486;7.144;2023-04-03T12:49:58;8.30;58.20
31733;DHT22;18312;51.486;7.144;2023-04-03T12:52:31;8.30;59.50
31733;DHT22;18312;51.486;7.144;2023-04-03T12:54:59;8.30;59.40
31733;DHT22;18312;51.486;7.144;2023-04-03T12:57:29;8.30;59.90
31733;DHT22;18312;51.486;7.144;2023-04-03T12:59:57;8.80;61.30
31733;DHT22;18312;51.486;7.144;2023-04-03T13:02:25;9.00;59.80
31733;DHT22;18312;51.486;7.144;2023-04-03T13:04:53;9.10;59.40
31733;DHT22;18312;51.486;7.144;2023-04-03T13:07:24;9.10;60.10
31733;DHT22;18312;51.486;7.144;2023-04-03T13:09:56;9.10;59.20
31733;DHT22;18312;51.486;7.144;2023-04-03T13:12:26;8.70;59.70
31733;DHT22;18312;51.486;7.144;2023-04-03T13:14:53;8.90;60.20
31733;DHT22;18312;51.486;7.144;2023-04-03T13:17:20;9.00;59.00
31733;DHT22;18312;51.486;7.144;2023-04-03T13:19:48;9.00;59.00
31733;DHT22;18312;51.486;7.144;2023-04-03T13:22:20;8.70;59.10
31733;DHT22;18312;51.486;7.144;2023-04-03T13:24:48;8.70;58.80
31733;DHT22;18312;51.486;7.144;2023-04-03T13:27:15;8.60;58.20
31733;DHT22;18312;51.486;7.144;2023-04-03T13:29:48;8.60;57.80
31733;DHT22;18312;51.486;7.144;2023-04-03T13:32:17;8.50;58.40
31733;DHT22;18312;51.486;7.144;2023-04-03T13:34:44;8.70;59.70
31733;DHT22;18312;51.486;7.144;2023-04-03T13:37:19;8.80;59.60
31733;DHT22;18312;51.486;7.144;2023-04-03T13:39:46;8.50;59.40
31733;DHT22;18312;51.486;7.144;2023-04-03T13:42:23;8.50;59.30
31733;DHT22;18312;51.486;7.144;2023-04-03T13:47:38;8.60;58.90
31733;DHT22;18312;51.486;7.144;2023-04-03T13:50:13;8.90;59.30
31733;DHT22;18312;51.486;7.144;2023-04-03T13:52:41;9.20;59.20
31733;DHT22;18312;51.486;7.144;2023-04-03T13:55:15;8.90;59.20
31733;DHT22;18312;51.486;7.144;2023-04-03T13:57:48;8.90;59.50
31733;DHT22;18312;51.486;7.144;2023-04-03T14:00:33;9.00;59.70
31733;DHT22;18312;51.486;7.144;2023-04-03T14:03:01;9.10;58.80
31733;DHT22;18312;51.486;7.144;2023-04-03T14:05:28;9.00;59.60
31733;DHT22;18312;51.486;7.144;2023-04-03T14:07:54;9.20;60.10
31733;DHT22;18312;51.486;7.144;2023-04-03T14:10:22;9.20;59.70
31733;DHT22;18312;51.486;7.144;2023-04-03T14:12:48;9.10;59.10
31733;DHT22;18312;51.486;7.144;2023-04-03T14:15:18;9.20;59.60
31733;DHT22;18312;51.486;7.144;2023-04-03T14:17:45;9.10;59.50
31733;DHT22;18312;51.486;7.144;2023-04-03T14:20:15;9.00;60.70
31733;DHT22;18312;51.486;7.144;2023-04-03T14:22:42;9.10;60.50
31733;DHT22;18312;51.486;7.144;2023-04-03T14:25:09;9.20;60.00
31733;DHT22;18312;51.486;7.144;2023-04-03T14:27:36;9.50;61.10
31733;DHT22;18312;51.486;7.144;2023-04-03T14:30:05;9.50;59.70
31733;DHT22;18312;51.486;7.144;2023-04-03T14:32:32;9.40;59.50
31733;DHT22;18312;51.486;7.144;2023-04-03T14:34:58;9.10;59.40
31733;DHT22;18312;51.486;7.144;2023-04-03T14:37:27;9.00;59.70
31733;DHT22;18312;51.486;7.144;2023-04-03T14:39:55;8.90;59.20
31733;DHT22;18312;51.486;7.144;2023-04-03T14:42:23;8.70;58.80
31733;DHT22;18312;51.486;7.144;2023-04-03T14:44:50;8.60;59.90
31733;DHT22;18312;51.486;7.144;2023-04-03T14:47:18;8.60;60.80
31733;DHT22;18312;51.486;7.144;2023-04-03T14:49:45;8.80;61.00
31733;DHT22;18312;51.486;7.144;2023-04-03T14:52:16;8.70;60.50
31733;DHT22;18312;51.486;7.144;2023-04-03T14:54:49;8.70;61.10
31733;DHT22;18312;51.486;7.144;2023-04-03T14:57:43;8.70;60.00
31733;DHT22;18312;51.486;7.144;2023-04-03T15:12:52;8.90;59.20
31733;DHT22;18312;51.486;7.144;2023-04-03T15:18:33;8.80;59.90
31733;DHT22;18312;51.486;7.144;2023-04-03T15:24:02;8.70;60.60
31733;DHT22;18312;51.486;7.144;2023-04-03T15:26:29;8.80;60.40
31733;DHT22;18312;51.486;7.144;2023-04-03T15:28:58;8.90;61.70
31733;DHT22;18312;51.486;7.144;2023-04-03T15:31:24;8.80;60.10
31733;DHT22;18312;51.486;7.144;2023-04-03T15:33:51;8.60;59.00
31733;DHT22;18312;51.486;7.144;2023-04-03T15:36:17;8.50;60.10
31733;DHT22;18312;51.486;7.144;2023-04-03T15:38:44;8.30;61.20
31733;DHT22;18312;51.486;7.144;2023-04-03T15:41:11;8.40;61.00
31733;DHT22;18312;51.486;7.144;2023-04-03T15:43:37;8.40;60.80
31733;DHT22;18312;51.486;7.144;2023-04-03T15:46:05;8.60;61.40
31733;DHT22;18312;51.486;7.144;2023-04-03T15:48:33;8.70;61.00
31733;DHT22;18312;51.486;7.144;2023-04-03T15:50:59;8.40;60.20
31733;DHT22;18312;51.486;7.144;2023-04-03T15:53:26;8.20;60.90
31733;DHT22;18312;51.486;7.144;2023-04-03T15:55:53;8.30;61.70
31733;DHT22;18312;51.486;7.144;2023-04-03T15:58:19;8.20;61.20
31733;DHT22;18312;51.486;7.144;2023-04-03T16:00:46;8.20;62.10
31733;DHT22;18312;51.486;7.144;2023-04-03T16:03:15;8.20;62.40
31733;DHT22;18312;51.486;7.144;2023-04-03T16:05:42;8.20;62.50
31733;DHT22;18312;51.486;7.144;2023-04-03T16:08:09;8.30;62.20
31733;DHT22;18312;51.486;7.144;2023-04-03T16:10:35;8.30;61.60
31733;DHT22;18312;51.486;7.144;2023-04-03T16:13:02;8.70;60.80
31733;DHT22;18312;51.486;7.144;2023-04-03T16:15:29;9.20;58.90
31733;DHT22;18312;51.486;7.144;2023-04-03T16:17:56;8.90;58.00
31733;DHT22;18312;51.486;7.144;2023-04-03T16:20:25;9.40;58.70
31733;DHT22;18312;51.486;7.144;2023-04-03T16:22:52;9.40;59.00
31733;DHT22;18312;51.486;7.144;2023-04-03T16:25:19;9.10;58.70
31733;DHT22;18312;51.486;7.144;2023-04-03T16:27:45;8.90;60.50